Terminal Aerodrome Forecast
Issued by NWS

Home | Current Version | Previous Version | Text Only | Print | Product List | Glossary On
Versions: 1 2 3 4 5 6 7 8 9 10 11 12 13 14 15 16 17 18 19 20 21
000
FTUS41 KGYX 231300 AAB
TAFAUG
TAF AMD
KAUG 231312Z 2313/2412 VRB04KT P6SM VCSH SCT025 BKN035 OVC050
     FM231700 35012G22KT P6SM VCSH BKN040 OVC060=

USA.gov is the U.S. government's official web portal to all federal, state and local government web resources and services.